Share

Chicken, AK (99732)

6:35 AM AKDT on April 24, 2014 (GMT -0800)
Northway (PAOR) Elev 1722 ft | 62.96 °N, 141.93 °W | Change Station

Current weather conditions updated 42 minutes ago

Light Rain
Light Rain
34 °F
Feels Like 34 °F
N
0
Wind Variable Wind from North
Sunrise 5:26 AM
Sunset 9:29 PM
Moon Waning Crescent

Today is forecast to be Much Cooler than yesterday. Light snow in the morning.

Pressure 29.65 in
Visibility 9.0 miles
Clouds Mostly Cloudy 2000 ft
Overcast 3500 ft
Dew Point 32 °F
Humidity 92%
Rainfall 0.00 in
Snow Depth Not available.
UV 0 out of 16
Pollen Not available.
Air Quality Not available.
Flu Activity Sporadic
METAR PAOR 241353Z 00000KT 9SM -RA BKN020 OVC035 01/00 A2959 RMK AO2 SLP038 T00110000 $

More Conditions Fewer Conditions

Pressure 29.65 in
Visibility 9.0 miles
Clouds Mostly Cloudy 2000 ft
Overcast 3500 ft
Dew Point 32 °F
Humidity 92%
Rainfall 0.00 in
Snow Depth Not available.
UV 0 out of 16
Pollen Not available.
Air Quality Not available.
Flu Activity Sporadic
METAR PAOR 241353Z 00000KT 9SM -RA BKN020 OVC035 01/00 A2959 RMK AO2 SLP038 T00110000 $

More Conditions Fewer Conditions

10-Day Weather Forecast

Almanac

Astronomy

Apr. 24, 2014 Rise Set
Actual Time 5:26 AM AKDT 9:29 PM AKDT
Civil Twilight 4:25 AM AKDT 10:30 PM AKDT
Nautical Twilight 2:39 AM AKDT 12:22 AM AKDT
Astronomical Twilight Sun does not rise Sun does not rise
Moon 4:25 AM AKDT 3:19 PM AKDT
Length of Visible Light 18h 05m
Length of Day
16h 02m
Tomorrow will be 6m 33s longer.
Waning Crescent, 25% of the Moon is Illuminated
Today
Waning Crescent
Apr 29
New
May 6
First Quarter
May 14
Full
May 21
Last Quarter

Today's Extremes

State Highs State Lows

Community

  • Clouds mov'n in
    Clouds mov'n in
  • Stacked
    Stacked
  • clouds approaching Red Sox Nation
    clouds approaching Red Sox Nation
  • Balance
    Balance
  • Citysky
    Citysky

WunderPhotos

Upload Photos

1,704,630 photos uploaded!

WunderBlogs® & News

Nearby

Snow Depth

Station Depth Elevation
Granite Creek 0 in 1240 ft
Upper Chena 30 in 2850 ft
Teuchet Creek 4 in 1640 ft
Munson Ridge 36 in 3100 ft
Monument Creek 9 in 1850 ft

Coastal Water Temperatures

Place Temperature
No Stations Reporting

Earthquake Activity

City Distance Mag. Time & Date
No recent earthquake activity has been reported nearby.
Minimum magnitude displayed is 2.5.

Nearby Weather Stations

Station Location Temp. Windchill Dew Point Humidity Wind Precip. Elev Updated Type
RAWS CHICKEN AK, Chicken, AK 35 °F 35 °F 26 °F 70% North  at  2 mph 0.00 in / hr 2859 ft 5:20 AM AKDT MADIS

Show More Stations Show Fewer Stations

What do you think?

We're not finished. Please let us know what you like, what you don't like, and what you are still missing.